KFMN/FMN METAR and TAF weather

Enter ICAO airport designator
Station Type Date Time Source
KFMN METAR 2021/01/27 13:53 UTC NOAA

KFMN 271353Z 08009KT 10SM CLR M11/M15 A3028 RMK AO2 SLP305 T11111150


Station Type Date Time Source
KFMN Decoded METAR 2021/01/27 13:53 UTC NOAA

FARMINGTON FOUR CORNERS, NM, United States (KFMN) 36-45N 108-14W 1685M
Jan 27, 2021 - 08:53 AM EST / 2021.01.27 1353 UTC
Wind: from the E (080 degrees) at 10 MPH (9 KT):0
Visibility: 10 mile(s):0
Sky conditions: clear
Temperature: 12.0 F (-11.1 C)
Windchill: 0 F (-18 C):1
Dew Point: 5.0 F (-15.0 C)
Relative Humidity: 72%
Pressure (altimeter): 30.28 in. Hg (1025 hPa)
ob: KFMN 271353Z 08009KT 10SM CLR M11/M15 A3028 RMK AO2 SLP305 T11111150
cycle: 14

Station Type Date Time Source
KFMN TAF 2021/01/27 12:22 UTC NOAA

TAF KFMN 271120Z 2712/2812 08006KT P6SM VCFG FEW002
FM271800 11009KT P6SM FEW040 SCT250
FM280100 08008KT P6SM BKN250

Example: see airport list